Time;durP1;ratioP1;P1;durP2;ratioP2;P2;SDS_P1;SDS_P2;PMS_P1;PMS_P2;Temp;Humidity;BMP_temperature;BMP_pressure;BME280_temperature;BME280_humidity;BME280_pressure;Samples;Min_cycle;Max_cycle;Signal;HPM_P1;HPM_P2
2021/01/10 00:00:01;;;;;;;;;;;2.30;99.90;;;;;;5060140;28;20411;-79
2021/01/10 00:02:27;;;;;;;;;;;2.30;99.90;;;;;;5062078;28;19928;-82
2021/01/10 00:04:52;;;;;;;;;;;2.20;99.90;;;;;;5045085;28;19920;-80
2021/01/10 00:07:24;;;;;;;;;;;2.20;99.90;;;;;;5054243;28;20011;-79
2021/01/10 00:09:50;;;;;;;;;;;2.20;99.90;;;;;;5051950;28;19931;-80
2021/01/10 00:12:25;;;;;;;;;;;2.20;99.90;;;;;;5046037;28;19916;-80
2021/01/10 00:14:51;;;;;;;;;;;2.10;99.90;;;;;;5059577;28;19913;-80
2021/01/10 00:17:17;;;;;;;;;;;2.10;99.90;;;;;;5045840;28;19913;-79
2021/01/10 00:19:43;;;;;;;;;;;2.10;99.90;;;;;;5047472;28;19962;-79
2021/01/10 00:22:10;;;;;;;;;;;2.00;99.90;;;;;;5066519;28;19925;-80
2021/01/10 00:24:35;;;;;;;;;;;2.00;99.90;;;;;;5057859;28;20391;-80
2021/01/10 00:27:01;;;;;;;;;;;2.00;99.90;;;;;;5041963;28;20007;-80
2021/01/10 00:29:26;;;;;;;;;;;2.00;99.90;;;;;;5044613;28;19916;-78
2021/01/10 00:31:51;;;;;;;;;;;2.10;99.90;;;;;;5056490;28;20557;-79
2021/01/10 00:34:17;;;;;;;;;;;2.10;99.90;;;;;;5042799;28;20013;-78
2021/01/10 00:36:42;;;;;;;;;;;2.10;99.90;;;;;;5057553;28;19919;-79
2021/01/10 00:39:09;;;;;;;;;;;2.10;99.90;;;;;;5060082;28;19955;-78
2021/01/10 00:41:35;;;;;;;;;;;2.10;99.90;;;;;;5057266;28;19962;-78
2021/01/10 00:44:00;;;;;;;;;;;2.00;99.90;;;;;;5062161;28;19932;-79
2021/01/10 00:46:26;;;;;;;;;;;2.00;99.90;;;;;;5057785;28;20430;-80
2021/01/10 00:48:51;;;;;;;;;;;2.00;99.90;;;;;;5060335;28;20339;-79
2021/01/10 00:51:16;;;;;;;;;;;2.00;99.90;;;;;;5043369;28;23070;-79
2021/01/10 00:53:42;;;;;;;;;;;2.00;99.90;;;;;;5039705;28;20419;-79
2021/01/10 00:56:08;;;;;;;;;;;2.00;99.90;;;;;;5060176;28;19913;-79
2021/01/10 00:58:33;;;;;;;;;;;2.00;99.90;;;;;;5060254;28;19952;-79
2021/01/10 01:00:59;;;;;;;;;;;2.00;99.90;;;;;;5056866;28;20659;-79
2021/01/10 01:03:24;;;;;;;;;;;2.10;99.90;;;;;;5062464;28;20292;-79
2021/01/10 01:05:50;;;;;;;;;;;2.10;99.90;;;;;;5058828;28;19963;-79
2021/01/10 01:08:15;;;;;;;;;;;2.10;99.90;;;;;;5042383;28;19991;-78
2021/01/10 01:10:43;;;;;;;;;;;2.10;99.90;;;;;;5058827;28;19931;-79
2021/01/10 01:13:08;;;;;;;;;;;2.10;99.90;;;;;;5062694;28;19920;-79
2021/01/10 01:15:34;;;;;;;;;;;2.10;99.90;;;;;;5059295;28;19928;-79
2021/01/10 01:17:59;;;;;;;;;;;2.10;99.90;;;;;;5056165;28;19926;-79
2021/01/10 01:20:25;;;;;;;;;;;2.10;99.90;;;;;;5059028;28;19925;-79
2021/01/10 01:22:50;;;;;;;;;;;2.10;99.90;;;;;;5059540;28;19943;-79
2021/01/10 01:25:16;;;;;;;;;;;2.10;99.90;;;;;;5061737;28;19920;-79
2021/01/10 01:27:41;;;;;;;;;;;2.10;99.90;;;;;;5038357;28;19921;-79
2021/01/10 01:30:07;;;;;;;;;;;2.20;99.90;;;;;;5041829;28;20865;-79
2021/01/10 01:32:35;;;;;;;;;;;2.20;99.90;;;;;;5064008;28;19952;-79
2021/01/10 01:35:01;;;;;;;;;;;2.10;99.90;;;;;;5040553;28;19920;-79
2021/01/10 01:37:27;;;;;;;;;;;2.20;99.90;;;;;;5057069;28;19913;-79
2021/01/10 01:39:52;;;;;;;;;;;2.20;99.90;;;;;;5060334;28;19912;-79
2021/01/10 01:42:17;;;;;;;;;;;2.20;99.90;;;;;;5046324;28;20377;-79
2021/01/10 01:44:44;;;;;;;;;;;2.20;99.90;;;;;;5056111;28;20288;-79
2021/01/10 01:47:12;;;;;;;;;;;2.20;99.90;;;;;;5055797;28;19921;-79
2021/01/10 01:49:37;;;;;;;;;;;2.20;99.90;;;;;;5044415;28;20588;-79
2021/01/10 01:52:04;;;;;;;;;;;2.20;99.90;;;;;;5039968;28;19955;-79
2021/01/10 01:54:30;;;;;;;;;;;2.20;99.90;;;;;;5055647;28;20012;-78
2021/01/10 01:56:55;;;;;;;;;;;2.20;99.90;;;;;;5040784;28;20377;-78
2021/01/10 01:59:20;;;;;;;;;;;2.20;99.90;;;;;;5039343;28;19984;-79
2021/01/10 02:01:46;;;;;;;;;;;2.20;99.90;;;;;;5058520;28;19913;-79
2021/01/10 02:04:20;;;;;;;;;;;2.20;99.90;;;;;;5059542;28;19924;-79
2021/01/10 02:06:59;;;;;;;;;;;2.20;99.90;;;;;;5039596;28;19912;-79
2021/01/10 02:09:25;;;;;;;;;;;2.10;99.90;;;;;;5056739;28;19920;-78
2021/01/10 02:11:52;;;;;;;;;;;2.10;99.90;;;;;;5041828;28;20024;-79
2021/01/10 02:14:18;;;;;;;;;;;2.10;99.90;;;;;;5037690;28;20011;-78
2021/01/10 02:16:44;;;;;;;;;;;2.10;99.90;;;;;;5060244;28;20404;-79
2021/01/10 02:19:16;;;;;;;;;;;2.00;99.90;;;;;;5058613;28;19912;-79
2021/01/10 02:21:42;;;;;;;;;;;2.00;99.90;;;;;;5057431;28;19970;-79
2021/01/10 02:24:08;;;;;;;;;;;2.00;99.90;;;;;;5062326;28;19916;-81
2021/01/10 02:26:34;;;;;;;;;;;2.00;99.90;;;;;;5040125;28;19913;-81
2021/01/10 02:28:59;;;;;;;;;;;2.00;99.90;;;;;;5055485;28;20007;-79
2021/01/10 02:31:26;;;;;;;;;;;2.00;99.90;;;;;;5060076;28;19920;-79
2021/01/10 02:33:55;;;;;;;;;;;2.00;99.90;;;;;;5057969;28;19917;-79
2021/01/10 02:36:27;;;;;;;;;;;1.90;99.90;;;;;;5056868;28;19913;-78
2021/01/10 02:39:01;;;;;;;;;;;1.90;99.90;;;;;;5038455;28;19917;-79
2021/01/10 02:41:38;;;;;;;;;;;1.90;99.90;;;;;;5063973;28;19919;-81
2021/01/10 02:44:11;;;;;;;;;;;1.90;99.90;;;;;;5057195;28;19939;-80
2021/01/10 02:46:37;;;;;;;;;;;1.90;99.90;;;;;;5059523;28;19999;-81
2021/01/10 02:49:03;;;;;;;;;;;1.90;99.90;;;;;;5058429;28;19913;-81
2021/01/10 02:51:28;;;;;;;;;;;1.90;99.90;;;;;;5057651;28;20262;-81
2021/01/10 02:53:54;;;;;;;;;;;1.90;99.90;;;;;;5056725;28;19917;-80
2021/01/10 02:56:19;;;;;;;;;;;1.80;99.90;;;;;;5058368;28;19955;-81
2021/01/10 02:58:45;;;;;;;;;;;1.80;99.90;;;;;;5058731;28;19920;-81
2021/01/10 03:01:13;;;;;;;;;;;1.80;99.90;;;;;;5042197;28;19932;-81
2021/01/10 03:03:39;;;;;;;;;;;1.80;99.90;;;;;;5055358;28;20031;-79
2021/01/10 03:06:05;;;;;;;;;;;1.80;99.90;;;;;;5060442;28;19966;-81
2021/01/10 03:08:30;;;;;;;;;;;1.70;99.90;;;;;;5055603;28;19913;-81
2021/01/10 03:10:56;;;;;;;;;;;1.70;99.90;;;;;;5057180;28;19923;-81
2021/01/10 03:13:22;;;;;;;;;;;1.70;99.90;;;;;;5045304;28;19924;-81
2021/01/10 03:15:47;;;;;;;;;;;1.70;99.90;;;;;;5049283;28;19913;-81
2021/01/10 03:18:20;;;;;;;;;;;1.70;99.90;;;;;;5041336;28;19908;-81
2021/01/10 03:20:46;;;;;;;;;;;1.60;99.90;;;;;;5056074;28;19916;-79
2021/01/10 03:23:11;;;;;;;;;;;1.60;99.90;;;;;;5056200;28;19927;-79
2021/01/10 03:25:37;;;;;;;;;;;1.60;99.90;;;;;;5039467;28;19919;-79
2021/01/10 03:28:02;;;;;;;;;;;1.70;99.90;;;;;;5061537;28;19933;-79
2021/01/10 03:30:28;;;;;;;;;;;1.70;99.90;;;;;;5062265;28;19966;-79
2021/01/10 03:32:53;;;;;;;;;;;1.70;99.90;;;;;;5042909;28;19920;-79
2021/01/10 03:35:19;;;;;;;;;;;1.80;99.90;;;;;;5046354;28;19963;-80
2021/01/10 03:37:45;;;;;;;;;;;1.80;99.90;;;;;;5059647;28;19966;-79
2021/01/10 03:40:10;;;;;;;;;;;1.80;99.90;;;;;;5059302;28;20420;-79
2021/01/10 03:42:36;;;;;;;;;;;1.80;99.90;;;;;;5045139;28;19991;-80
2021/01/10 03:45:02;;;;;;;;;;;1.80;99.90;;;;;;5060322;28;20011;-79
2021/01/10 03:47:27;;;;;;;;;;;1.70;99.90;;;;;;5060979;28;19912;-80
2021/01/10 03:49:53;;;;;;;;;;;1.70;99.90;;;;;;5059865;28;19913;-79
2021/01/10 03:52:18;;;;;;;;;;;1.70;99.90;;;;;;5067051;28;19948;-80
2021/01/10 03:54:44;;;;;;;;;;;1.60;99.90;;;;;;5061689;28;19940;-80
2021/01/10 03:57:09;;;;;;;;;;;1.50;99.90;;;;;;5059810;28;20372;-80
2021/01/10 03:59:35;;;;;;;;;;;1.50;99.90;;;;;;5061610;28;19959;-79
2021/01/10 04:02:00;;;;;;;;;;;1.50;99.90;;;;;;5064364;28;19921;-80
2021/01/10 04:04:25;;;;;;;;;;;1.50;99.90;;;;;;5063407;28;20055;-80
2021/01/10 04:06:51;;;;;;;;;;;1.40;99.90;;;;;;5044536;28;19920;-79
2021/01/10 04:09:16;;;;;;;;;;;1.40;99.90;;;;;;5057664;28;19931;-80
2021/01/10 04:11:42;;;;;;;;;;;1.40;99.90;;;;;;5081017;22;19929;-82
2021/01/10 04:14:07;;;;;;;;;;;1.40;99.90;;;;;;5059050;28;19937;-83
2021/01/10 04:16:33;;;;;;;;;;;1.40;99.90;;;;;;5047768;28;20229;-83
2021/01/10 04:18:58;;;;;;;;;;;1.40;99.90;;;;;;5052084;28;19913;-82
2021/01/10 04:21:30;;;;;;;;;;;1.40;99.90;;;;;;5059791;28;19987;-82
2021/01/10 04:23:55;;;;;;;;;;;1.40;99.90;;;;;;5055495;28;19917;-82
2021/01/10 04:26:21;;;;;;;;;;;1.40;99.90;;;;;;5050201;28;19952;-83
2021/01/10 04:28:46;;;;;;;;;;;1.40;99.90;;;;;;5054505;28;19955;-82
2021/01/10 04:31:12;;;;;;;;;;;1.30;99.90;;;;;;5059227;28;20023;-82
2021/01/10 04:33:37;;;;;;;;;;;1.30;99.90;;;;;;5047647;28;19913;-82
2021/01/10 04:36:03;;;;;;;;;;;1.40;99.90;;;;;;5053975;28;20512;-84
2021/01/10 04:38:29;;;;;;;;;;;1.40;99.90;;;;;;5051025;28;20004;-82
2021/01/10 04:40:56;;;;;;;;;;;1.40;99.90;;;;;;5056432;28;19913;-83
2021/01/10 04:43:22;;;;;;;;;;;1.30;99.90;;;;;;5056076;28;19918;-83
2021/01/10 04:45:48;;;;;;;;;;;1.30;99.90;;;;;;5046987;28;19917;-84
2021/01/10 04:48:13;;;;;;;;;;;1.30;99.90;;;;;;5049001;28;20199;-83
2021/01/10 04:50:39;;;;;;;;;;;1.30;99.90;;;;;;5049035;28;19913;-83
2021/01/10 04:53:05;;;;;;;;;;;1.30;99.90;;;;;;5053838;28;19920;-82
2021/01/10 04:55:31;;;;;;;;;;;1.30;99.90;;;;;;5065013;28;19920;-82
2021/01/10 04:58:04;;;;;;;;;;;1.30;99.90;;;;;;5052265;28;19916;-82
2021/01/10 05:00:30;;;;;;;;;;;1.30;99.90;;;;;;5049739;28;19967;-83
2021/01/10 05:03:02;;;;;;;;;;;1.40;99.90;;;;;;5047411;28;19918;-84
2021/01/10 05:05:27;;;;;;;;;;;1.40;99.90;;;;;;5048331;28;19925;-82
2021/01/10 05:07:53;;;;;;;;;;;1.40;99.90;;;;;;5049152;28;20450;-83
2021/01/10 05:10:18;;;;;;;;;;;1.40;99.90;;;;;;5055820;28;19913;-82
2021/01/10 05:12:44;;;;;;;;;;;1.40;99.90;;;;;;5047080;28;20011;-83
2021/01/10 05:15:10;;;;;;;;;;;1.40;99.90;;;;;;5048630;28;19959;-83
2021/01/10 05:17:35;;;;;;;;;;;1.40;99.90;;;;;;5054256;28;19935;-84
2021/01/10 05:20:06;;;;;;;;;;;1.40;99.90;;;;;;5055242;28;19979;-83
2021/01/10 05:22:31;;;;;;;;;;;1.40;99.90;;;;;;5064870;28;20020;-83
2021/01/10 05:25:10;;;;;;;;;;;1.40;99.90;;;;;;5049239;28;19960;-82
2021/01/10 05:27:38;;;;;;;;;;;1.40;99.90;;;;;;5052489;28;19913;-83
2021/01/10 05:30:04;;;;;;;;;;;1.40;99.90;;;;;;5049286;28;19917;-83
2021/01/10 05:32:30;;;;;;;;;;;1.40;99.90;;;;;;5058224;28;19919;-82
2021/01/10 05:35:00;;;;;;;;;;;1.40;99.90;;;;;;5050353;28;19944;-82
2021/01/10 05:37:25;;;;;;;;;;;1.40;99.90;;;;;;5046754;28;19917;-83
2021/01/10 05:39:51;;;;;;;;;;;1.40;99.90;;;;;;5043270;28;19973;-82
2021/01/10 05:42:17;;;;;;;;;;;1.40;99.90;;;;;;5050445;28;19963;-81
2021/01/10 05:44:43;;;;;;;;;;;1.30;99.90;;;;;;5049766;28;19917;-83
2021/01/10 05:47:10;;;;;;;;;;;1.30;99.90;;;;;;5065094;28;19923;-83
2021/01/10 05:49:44;;;;;;;;;;;1.40;99.90;;;;;;5049387;28;19923;-83
2021/01/10 05:52:10;;;;;;;;;;;1.40;99.90;;;;;;5057896;28;19913;-83
2021/01/10 05:54:38;;;;;;;;;;;1.40;99.90;;;;;;5050373;28;20000;-83
2021/01/10 05:57:06;;;;;;;;;;;1.50;99.90;;;;;;5050399;28;20483;-83
2021/01/10 05:59:35;;;;;;;;;;;1.50;99.90;;;;;;5047514;28;19913;-83
2021/01/10 06:02:01;;;;;;;;;;;1.50;99.90;;;;;;5050395;28;19921;-82
2021/01/10 06:04:27;;;;;;;;;;;1.50;99.90;;;;;;5047055;28;19917;-83
2021/01/10 06:06:53;;;;;;;;;;;1.50;99.90;;;;;;5048208;28;19951;-83
2021/01/10 06:09:19;;;;;;;;;;;1.50;99.90;;;;;;5047829;28;19923;-83
2021/01/10 06:11:45;;;;;;;;;;;1.50;99.90;;;;;;5048561;28;19917;-83
2021/01/10 06:14:17;;;;;;;;;;;1.50;99.90;;;;;;5045489;28;20018;-83
2021/01/10 06:16:50;;;;;;;;;;;1.50;99.90;;;;;;5049740;28;19914;-83
2021/01/10 06:19:16;;;;;;;;;;;1.50;99.90;;;;;;5049009;28;19968;-83
2021/01/10 06:21:46;;;;;;;;;;;1.50;99.90;;;;;;5048429;28;19920;-82
2021/01/10 06:24:15;;;;;;;;;;;1.60;99.90;;;;;;5049413;28;19921;-82
2021/01/10 06:26:44;;;;;;;;;;;1.60;99.90;;;;;;5049561;28;19932;-83
2021/01/10 06:29:12;;;;;;;;;;;1.60;99.90;;;;;;5055353;28;19913;-83
2021/01/10 06:31:38;;;;;;;;;;;1.50;99.90;;;;;;5049145;28;20135;-83
2021/01/10 06:34:08;;;;;;;;;;;1.50;99.90;;;;;;5046518;28;19909;-82
2021/01/10 06:36:37;;;;;;;;;;;1.50;99.90;;;;;;5047085;28;19913;-83
2021/01/10 06:39:05;;;;;;;;;;;1.60;99.90;;;;;;5054717;28;19952;-83
2021/01/10 06:41:34;;;;;;;;;;;1.60;99.90;;;;;;5046495;28;19984;-82
2021/01/10 06:44:01;;;;;;;;;;;1.60;99.90;;;;;;5045434;28;19923;-82
2021/01/10 06:46:27;;;;;;;;;;;1.60;99.90;;;;;;5049428;28;19921;-82
2021/01/10 06:48:53;;;;;;;;;;;1.60;99.90;;;;;;5046529;28;20118;-82
2021/01/10 06:51:21;;;;;;;;;;;1.50;99.90;;;;;;5049450;28;19924;-83
2021/01/10 06:53:46;;;;;;;;;;;1.50;99.90;;;;;;5042804;28;19914;-84
2021/01/10 06:56:12;;;;;;;;;;;1.50;99.90;;;;;;5055693;28;19988;-83
2021/01/10 06:58:38;;;;;;;;;;;1.50;99.90;;;;;;5051893;28;21863;-83
2021/01/10 07:01:03;;;;;;;;;;;1.50;99.90;;;;;;5049047;28;19963;-82
2021/01/10 07:03:28;;;;;;;;;;;1.50;99.90;;;;;;5051681;28;19921;-82
2021/01/10 07:05:58;;;;;;;;;;;1.60;99.90;;;;;;5047616;28;19928;-83
2021/01/10 07:08:34;;;;;;;;;;;1.60;99.90;;;;;;5052463;28;19913;-83
2021/01/10 07:11:19;;;;;;;;;;;1.50;99.90;;;;;;5051069;28;20066;-83
2021/01/10 07:13:44;;;;;;;;;;;1.60;99.90;;;;;;5061925;28;19927;-85
2021/01/10 07:16:25;;;;;;;;;;;1.60;99.90;;;;;;5053297;28;19944;-83
2021/01/10 07:18:51;;;;;;;;;;;1.70;99.90;;;;;;5050262;28;19912;-87
2021/01/10 07:21:35;;;;;;;;;;;1.80;99.90;;;;;;5052794;28;19913;-83
2021/01/10 07:24:13;;;;;;;;;;;1.90;99.90;;;;;;5068765;28;19944;-84
2021/01/10 07:26:39;;;;;;;;;;;2.00;99.90;;;;;;5069916;28;19923;-84
2021/01/10 07:29:24;;;;;;;;;;;2.00;99.90;;;;;;5054406;28;20113;-83
2021/01/10 07:32:12;;;;;;;;;;;2.10;99.90;;;;;;5054929;28;19935;-85
2021/01/10 07:34:44;;;;;;;;;;;2.10;99.90;;;;;;5045445;28;19914;-85
2021/01/10 07:37:26;;;;;;;;;;;2.10;99.90;;;;;;5056927;28;19921;-84
2021/01/10 07:39:53;;;;;;;;;;;2.20;99.90;;;;;;5067043;28;19923;-84
2021/01/10 07:42:19;;;;;;;;;;;2.20;99.90;;;;;;5069249;28;19909;-84
2021/01/10 07:44:44;;;;;;;;;;;2.20;99.90;;;;;;5053983;28;19916;-84
2021/01/10 07:47:10;;;;;;;;;;;2.30;99.90;;;;;;5052485;28;19920;-84
2021/01/10 07:49:47;;;;;;;;;;;2.30;99.90;;;;;;5051631;28;19948;-83
2021/01/10 07:52:12;;;;;;;;;;;2.30;99.90;;;;;;5053563;28;19913;-86
2021/01/10 07:54:52;;;;;;;;;;;2.30;99.90;;;;;;5057466;28;19913;-83
2021/01/10 07:57:36;;;;;;;;;;;2.30;99.90;;;;;;5077602;28;19912;-84
2021/01/10 08:00:04;;;;;;;;;;;2.40;99.90;;;;;;5063169;28;19972;-83
2021/01/10 08:02:49;;;;;;;;;;;2.40;99.90;;;;;;5072578;28;19913;-83
2021/01/10 08:05:19;;;;;;;;;;;2.50;99.90;;;;;;5051338;28;19913;-84
2021/01/10 08:07:55;;;;;;;;;;;2.50;99.90;;;;;;5048441;28;19920;-84
2021/01/10 08:10:22;;;;;;;;;;;2.50;99.90;;;;;;5061099;28;19909;-84
2021/01/10 08:12:47;;;;;;;;;;;2.60;99.90;;;;;;5067361;28;20004;-86
2021/01/10 08:15:13;;;;;;;;;;;2.60;99.90;;;;;;5062374;28;19917;-83
2021/01/10 08:17:39;;;;;;;;;;;2.60;99.90;;;;;;5059968;28;19976;-84
2021/01/10 08:20:05;;;;;;;;;;;2.60;99.90;;;;;;5067545;28;19913;-83
2021/01/10 08:22:31;;;;;;;;;;;2.70;99.90;;;;;;5060980;28;19980;-85
2021/01/10 08:24:57;;;;;;;;;;;2.70;99.90;;;;;;5064390;28;19962;-83
2021/01/10 08:27:23;;;;;;;;;;;2.70;99.90;;;;;;5050397;28;19912;-84
2021/01/10 08:29:48;;;;;;;;;;;2.70;99.90;;;;;;5064508;28;19975;-83
2021/01/10 08:32:14;;;;;;;;;;;2.60;99.90;;;;;;5069333;28;19956;-83
2021/01/10 08:34:46;;;;;;;;;;;2.70;99.90;;;;;;5066364;28;19913;-84
2021/01/10 08:37:13;;;;;;;;;;;2.70;99.90;;;;;;5063512;28;20043;-84
2021/01/10 08:39:38;;;;;;;;;;;2.70;99.90;;;;;;5055135;28;19917;-85
2021/01/10 08:42:04;;;;;;;;;;;2.80;99.90;;;;;;5057506;28;19920;-83
2021/01/10 08:44:29;;;;;;;;;;;2.80;99.90;;;;;;5065572;28;19935;-84
2021/01/10 08:46:55;;;;;;;;;;;2.90;99.90;;;;;;5067824;28;20365;-84
2021/01/10 08:49:25;;;;;;;;;;;3.00;99.90;;;;;;5066629;28;19909;-84
2021/01/10 08:51:50;;;;;;;;;;;3.00;99.90;;;;;;5065784;28;20010;-84
2021/01/10 08:54:17;;;;;;;;;;;3.10;99.90;;;;;;5066024;28;19909;-83
2021/01/10 08:56:43;;;;;;;;;;;3.10;99.90;;;;;;5062307;28;19976;-84
2021/01/10 08:59:09;;;;;;;;;;;3.10;99.90;;;;;;5055488;28;19913;-85
2021/01/10 09:01:35;;;;;;;;;;;3.20;99.90;;;;;;5069660;28;19913;-84
2021/01/10 09:04:06;;;;;;;;;;;3.20;99.90;;;;;;5067779;28;19913;-83
2021/01/10 09:06:32;;;;;;;;;;;3.20;99.90;;;;;;5067668;28;19944;-82
2021/01/10 09:09:00;;;;;;;;;;;3.30;99.90;;;;;;5068010;28;19909;-85
2021/01/10 09:11:28;;;;;;;;;;;3.30;99.90;;;;;;5067264;28;19917;-83
2021/01/10 09:13:56;;;;;;;;;;;3.30;99.90;;;;;;5067119;28;19928;-84
2021/01/10 09:16:23;;;;;;;;;;;3.30;99.90;;;;;;5054219;28;19927;-83
2021/01/10 09:18:51;;;;;;;;;;;3.30;99.90;;;;;;5066142;28;20282;-84
2021/01/10 09:21:18;;;;;;;;;;;3.40;99.90;;;;;;5068573;28;20288;-84
2021/01/10 09:23:48;;;;;;;;;;;3.50;99.90;;;;;;5067639;28;19913;-83
2021/01/10 09:26:42;;;;;;;;;;;3.50;99.90;;;;;;5067489;28;19968;-83
2021/01/10 09:29:18;;;;;;;;;;;3.50;99.90;;;;;;5051575;28;19913;-84
2021/01/10 09:31:46;;;;;;;;;;;3.60;99.90;;;;;;5059165;28;19976;-84
2021/01/10 09:34:11;;;;;;;;;;;3.60;99.90;;;;;;5059568;28;19923;-84
2021/01/10 09:36:37;;;;;;;;;;;3.70;99.90;;;;;;5067929;28;19972;-83
2021/01/10 09:39:03;;;;;;;;;;;3.70;99.90;;;;;;5064432;28;19913;-84
2021/01/10 09:41:29;;;;;;;;;;;3.80;99.90;;;;;;5067303;28;19950;-84
2021/01/10 09:43:55;;;;;;;;;;;3.80;99.90;;;;;;5065531;28;19913;-83
2021/01/10 09:46:26;;;;;;;;;;;3.90;99.90;;;;;;5068807;28;19915;-84
2021/01/10 09:48:53;;;;;;;;;;;4.00;99.90;;;;;;5066186;28;19913;-84
2021/01/10 09:51:19;;;;;;;;;;;4.10;99.90;;;;;;5067386;28;19909;-84
2021/01/10 09:53:47;;;;;;;;;;;4.20;99.90;;;;;;5058436;28;19913;-83
2021/01/10 09:56:33;;;;;;;;;;;4.20;99.90;;;;;;5063414;28;19912;-84
2021/01/10 09:58:58;;;;;;;;;;;4.30;99.90;;;;;;5058969;28;19909;-84
2021/01/10 10:01:30;;;;;;;;;;;4.30;99.90;;;;;;5065787;28;19956;-84
2021/01/10 10:03:55;;;;;;;;;;;4.40;99.90;;;;;;5064620;28;19913;-83
2021/01/10 10:06:21;;;;;;;;;;;4.50;99.90;;;;;;5068664;28;19932;-86
2021/01/10 10:08:53;;;;;;;;;;;4.50;99.90;;;;;;5060883;28;19939;-84
2021/01/10 10:11:18;;;;;;;;;;;4.60;99.90;;;;;;5063965;28;19917;-85
2021/01/10 10:13:44;;;;;;;;;;;4.60;99.90;;;;;;5060667;28;19913;-85
2021/01/10 10:16:15;;;;;;;;;;;4.70;99.90;;;;;;5064864;28;19913;-84
2021/01/10 10:18:42;;;;;;;;;;;4.70;99.90;;;;;;5066559;28;19912;-83
2021/01/10 10:21:07;;;;;;;;;;;4.80;99.90;;;;;;5066189;28;19935;-82
2021/01/10 10:23:33;;;;;;;;;;;4.70;99.90;;;;;;5082859;28;19912;-84
2021/01/10 10:25:58;;;;;;;;;;;4.70;99.90;;;;;;5065778;28;19913;-83
2021/01/10 10:28:24;;;;;;;;;;;4.80;99.90;;;;;;5062588;28;19924;-83
2021/01/10 10:30:49;;;;;;;;;;;4.80;99.90;;;;;;5065918;28;19909;-83
2021/01/10 10:33:16;;;;;;;;;;;4.80;99.90;;;;;;5065831;28;19920;-83
2021/01/10 10:35:42;;;;;;;;;;;4.90;99.90;;;;;;5068099;28;19920;-85
2021/01/10 10:38:07;;;;;;;;;;;5.00;99.90;;;;;;5048524;28;20372;-83
2021/01/10 10:40:33;;;;;;;;;;;5.10;99.90;;;;;;5065722;28;19913;-83
2021/01/10 10:42:59;;;;;;;;;;;5.10;99.90;;;;;;5067571;28;19916;-84
2021/01/10 10:45:24;;;;;;;;;;;5.20;99.90;;;;;;5062784;28;19917;-84
2021/01/10 10:47:50;;;;;;;;;;;5.30;99.90;;;;;;5047434;28;19913;-83
2021/01/10 10:50:16;;;;;;;;;;;5.40;99.90;;;;;;5065424;28;20280;-83
2021/01/10 10:52:42;;;;;;;;;;;5.50;99.90;;;;;;5064955;28;19912;-83
2021/01/10 10:55:07;;;;;;;;;;;5.50;99.90;;;;;;5058283;28;20480;-84
2021/01/10 10:57:33;;;;;;;;;;;5.60;99.90;;;;;;5066980;28;19986;-83
2021/01/10 10:59:58;;;;;;;;;;;5.80;99.90;;;;;;5059726;28;19913;-85
2021/01/10 11:02:24;;;;;;;;;;;5.90;99.90;;;;;;5062722;28;19913;-84
2021/01/10 11:04:49;;;;;;;;;;;6.00;99.90;;;;;;5051967;28;19963;-82
2021/01/10 11:07:15;;;;;;;;;;;6.20;99.90;;;;;;5061291;28;20019;-84
2021/01/10 11:09:41;;;;;;;;;;;6.30;99.90;;;;;;5061483;28;19917;-84
2021/01/10 11:12:10;;;;;;;;;;;6.40;99.90;;;;;;5061159;28;19917;-83
2021/01/10 11:14:36;;;;;;;;;;;6.50;99.90;;;;;;5062168;28;19920;-83
2021/01/10 11:17:08;;;;;;;;;;;6.60;99.90;;;;;;5061432;28;19917;-84
2021/01/10 11:19:34;;;;;;;;;;;6.60;99.90;;;;;;5063076;28;19913;-85
2021/01/10 11:22:00;;;;;;;;;;;6.70;99.90;;;;;;5053919;28;19928;-82
2021/01/10 11:24:25;;;;;;;;;;;6.80;99.90;;;;;;5064065;28;19908;-85
2021/01/10 11:26:51;;;;;;;;;;;6.90;99.90;;;;;;5058338;28;19978;-85
2021/01/10 11:29:17;;;;;;;;;;;7.00;99.90;;;;;;5059979;28;20385;-85
2021/01/10 11:31:42;;;;;;;;;;;7.10;99.90;;;;;;5054256;28;19935;-85
2021/01/10 11:34:08;;;;;;;;;;;7.20;99.90;;;;;;5055006;28;19913;-86
2021/01/10 11:36:35;;;;;;;;;;;7.30;99.90;;;;;;5053998;28;19913;-85
2021/01/10 11:39:00;;;;;;;;;;;7.40;99.90;;;;;;5060813;28;19972;-84
2021/01/10 11:41:26;;;;;;;;;;;7.50;99.90;;;;;;5064341;28;20044;-84
2021/01/10 11:43:52;;;;;;;;;;;7.70;99.90;;;;;;5063721;28;19912;-86
2021/01/10 11:46:18;;;;;;;;;;;7.80;99.90;;;;;;5054093;28;19917;-85
2021/01/10 11:48:44;;;;;;;;;;;7.80;99.90;;;;;;5063447;28;19984;-85
2021/01/10 11:51:11;;;;;;;;;;;7.90;99.90;;;;;;5062313;28;20281;-88
2021/01/10 11:53:37;;;;;;;;;;;8.10;99.90;;;;;;5068084;28;20292;-85
2021/01/10 11:56:03;;;;;;;;;;;8.50;99.90;;;;;;5060199;28;19984;-80
2021/01/10 11:58:29;;;;;;;;;;;8.80;99.90;;;;;;5047891;28;19913;-81
2021/01/10 12:00:55;;;;;;;;;;;9.40;99.90;;;;;;5051612;28;19956;-87
2021/01/10 12:03:21;;;;;;;;;;;9.70;99.90;;;;;;5064696;28;19913;-84
2021/01/10 12:05:47;;;;;;;;;;;9.80;99.90;;;;;;5062876;28;19913;-84
2021/01/10 12:08:13;;;;;;;;;;;9.70;99.90;;;;;;5049134;28;19920;-83
2021/01/10 12:10:38;;;;;;;;;;;9.80;99.90;;;;;;5049362;28;19967;-83
2021/01/10 12:13:04;;;;;;;;;;;10.10;99.90;;;;;;5068278;28;19917;-85
2021/01/10 12:15:30;;;;;;;;;;;10.70;99.90;;;;;;5063416;28;20008;-87
2021/01/10 12:17:56;;;;;;;;;;;11.10;99.90;;;;;;5058143;28;19967;-87
2021/01/10 12:20:21;;;;;;;;;;;11.80;99.90;;;;;;5056914;28;19917;-84
2021/01/10 12:22:47;;;;;;;;;;;12.50;99.90;;;;;;5053853;28;19912;-87
2021/01/10 12:25:12;;;;;;;;;;;12.90;99.90;;;;;;5060180;28;19913;-83
2021/01/10 12:27:38;;;;;;;;;;;12.80;99.90;;;;;;5057517;28;19920;-85
2021/01/10 12:30:04;;;;;;;;;;;12.80;99.90;;;;;;5054524;28;19913;-85
2021/01/10 12:32:35;;;;;;;;;;;12.80;99.90;;;;;;5058924;28;20447;-86
2021/01/10 12:35:00;;;;;;;;;;;12.70;99.90;;;;;;5053515;28;19924;-85
2021/01/10 12:37:26;;;;;;;;;;;12.80;99.90;;;;;;5053037;28;20051;-85
2021/01/10 12:39:51;;;;;;;;;;;12.90;99.90;;;;;;5057215;28;19955;-85
2021/01/10 12:42:17;;;;;;;;;;;13.20;99.90;;;;;;5058693;28;19923;-85
2021/01/10 12:44:43;;;;;;;;;;;13.20;99.90;;;;;;5055346;28;20380;-84
2021/01/10 12:47:09;;;;;;;;;;;13.00;99.90;;;;;;5061939;28;19913;-84
2021/01/10 12:49:35;;;;;;;;;;;12.80;99.90;;;;;;5054360;28;19989;-86
2021/01/10 12:52:01;;;;;;;;;;;12.50;99.90;;;;;;5057636;28;19921;-84
2021/01/10 12:54:26;;;;;;;;;;;12.20;99.90;;;;;;5050224;28;19924;-84
2021/01/10 12:56:51;;;;;;;;;;;11.80;99.90;;;;;;5054728;28;19917;-85
2021/01/10 12:59:17;;;;;;;;;;;11.40;99.90;;;;;;5054553;28;19913;-85
2021/01/10 13:01:42;;;;;;;;;;;11.10;99.90;;;;;;5058128;28;19913;-84
2021/01/10 13:04:08;;;;;;;;;;;10.90;99.90;;;;;;5052217;28;20519;-85
2021/01/10 13:06:35;;;;;;;;;;;10.60;99.90;;;;;;5058787;28;19916;-86
2021/01/10 13:09:00;;;;;;;;;;;10.40;99.90;;;;;;5056518;28;19972;-85
2021/01/10 13:11:26;;;;;;;;;;;10.20;99.90;;;;;;5056861;28;19917;-83
2021/01/10 13:13:51;;;;;;;;;;;10.00;99.90;;;;;;5056589;28;19917;-85
2021/01/10 13:16:17;;;;;;;;;;;9.80;99.90;;;;;;5053195;28;20003;-84
2021/01/10 13:18:43;;;;;;;;;;;9.60;99.90;;;;;;5052036;28;19913;-84
2021/01/10 13:21:08;;;;;;;;;;;9.40;99.90;;;;;;5057556;28;19917;-85
2021/01/10 13:23:34;;;;;;;;;;;9.30;99.90;;;;;;5052362;28;19913;-85
2021/01/10 13:25:59;;;;;;;;;;;9.20;99.90;;;;;;5057957;28;19921;-83
2021/01/10 13:28:25;;;;;;;;;;;9.10;99.90;;;;;;5059029;28;19913;-85
2021/01/10 13:30:50;;;;;;;;;;;9.00;99.90;;;;;;5052333;28;19919;-83
2021/01/10 13:33:16;;;;;;;;;;;9.00;99.90;;;;;;5058975;28;21979;-84
2021/01/10 13:35:41;;;;;;;;;;;8.90;99.90;;;;;;5049846;28;19969;-83
2021/01/10 13:38:07;;;;;;;;;;;8.90;99.90;;;;;;5059391;28;20373;-83
2021/01/10 13:40:33;;;;;;;;;;;8.90;99.90;;;;;;5052545;28;19929;-83
2021/01/10 13:43:02;;;;;;;;;;;8.90;99.90;;;;;;5052831;28;20000;-83
2021/01/10 13:45:27;;;;;;;;;;;8.90;99.90;;;;;;5048510;28;19920;-84
2021/01/10 13:47:53;;;;;;;;;;;8.90;99.90;;;;;;5055684;28;19909;-85
2021/01/10 13:50:18;;;;;;;;;;;8.80;99.90;;;;;;5051601;28;20062;-86
2021/01/10 13:52:44;;;;;;;;;;;8.80;99.90;;;;;;5056849;28;19947;-85
2021/01/10 13:55:09;;;;;;;;;;;8.80;99.90;;;;;;5056628;28;20023;-86
2021/01/10 13:57:35;;;;;;;;;;;8.90;99.90;;;;;;5056920;28;19956;-88
2021/01/10 14:00:02;;;;;;;;;;;8.90;99.90;;;;;;5049490;28;19920;-85
2021/01/10 14:02:28;;;;;;;;;;;8.90;99.90;;;;;;5049876;28;19921;-84
2021/01/10 14:04:53;;;;;;;;;;;8.90;99.90;;;;;;5050985;28;19919;-86
2021/01/10 14:07:19;;;;;;;;;;;8.90;99.90;;;;;;5055858;28;20428;-86
2021/01/10 14:09:44;;;;;;;;;;;8.80;99.90;;;;;;5049850;28;19917;-84
2021/01/10 14:12:12;;;;;;;;;;;8.80;99.90;;;;;;5052150;28;19921;-83
2021/01/10 14:14:38;;;;;;;;;;;8.80;99.90;;;;;;5049640;28;19992;-85
2021/01/10 14:17:06;;;;;;;;;;;8.80;99.90;;;;;;5046388;28;19929;-83
2021/01/10 14:19:32;;;;;;;;;;;8.90;99.90;;;;;;5052915;28;20272;-82
2021/01/10 14:21:57;;;;;;;;;;;9.10;99.90;;;;;;5055900;28;20008;-82
2021/01/10 14:24:23;;;;;;;;;;;9.10;99.90;;;;;;5050432;28;19917;-84
2021/01/10 14:26:48;;;;;;;;;;;9.10;99.90;;;;;;5061942;28;19913;-84